SLCU weather

Culpina Airport
Sud Cinti, Chuquisaca Department, Bolivia

Public forecast

Using degrees Celsius for public forecast. Weather courtesy of forecast.io.

METAR (pilot weather report)

Closest report is Capitan Oriel Lea Plaza Airport, 45.8 nm (84.9 km) SSE. Retrieved 2019/07/18 01:00 UTC (42 minutes ago):

SLTJ 180100Z 00000KT 7000 NSC 15/07 Q1021

TAF (pilot weather forecast)

Forecast is more than 12 hours old.

Closest forecast is Capitan Oriel Lea Plaza Airport, 45.8 nm (84.9 km) SSE. Retrieved 2019/07/17 00:40 UTC (1 day ago):

TAF SLTJ 172240Z 1800/1824 13010KT 9999 NSC TX23/1819Z TN09/1811Z BECMG 1803/1805 00000KT SCT023 BECMG 1814/1816 11008KT FEW027